createdAt,value
2019-02-12T00:01:49.623Z,3.90
2019-02-12T00:04:17.015Z,4.68
2019-02-12T00:06:44.606Z,5.10
2019-02-12T00:09:12.025Z,5.20
2019-02-12T00:11:39.871Z,4.80
2019-02-12T00:14:07.386Z,4.75
2019-02-12T00:16:34.785Z,5.70
2019-02-12T00:19:02.543Z,3.58
2019-02-12T00:21:30.173Z,6.57
2019-02-12T00:23:57.590Z,5.40
2019-02-12T00:26:25.001Z,5.05
2019-02-12T00:28:52.378Z,5.15
2019-02-12T00:31:19.779Z,4.62
2019-02-12T00:33:47.189Z,4.43
2019-02-12T00:36:14.581Z,4.30
2019-02-12T00:38:41.984Z,3.87
2019-02-12T00:41:09.418Z,4.00
2019-02-12T00:43:36.798Z,5.05
2019-02-12T00:46:04.209Z,4.45
2019-02-12T00:48:31.599Z,4.55
2019-02-12T00:50:59.010Z,4.90
2019-02-12T00:53:26.424Z,5.00
2019-02-12T00:55:53.815Z,5.57
2019-02-12T00:58:21.219Z,4.80
2019-02-12T01:00:48.863Z,5.90
2019-02-12T01:03:16.270Z,4.20
2019-02-12T01:05:43.671Z,5.12
2019-02-12T01:08:11.797Z,5.50
2019-02-12T01:10:39.211Z,4.28
2019-02-12T01:13:06.784Z,6.32
2019-02-12T01:15:34.167Z,6.25
2019-02-12T01:18:01.570Z,4.78
2019-02-12T01:20:28.962Z,5.45
2019-02-12T01:22:56.441Z,6.28
2019-02-12T01:25:23.831Z,5.53
2019-02-12T01:27:51.324Z,6.50
2019-02-12T01:30:18.720Z,5.70
2019-02-12T01:32:46.129Z,4.20
2019-02-12T01:35:13.581Z,5.18
2019-02-12T01:37:40.958Z,5.28
2019-02-12T01:40:08.383Z,6.07
2019-02-12T01:42:35.783Z,4.78
2019-02-12T01:45:03.182Z,5.60
2019-02-12T01:47:30.773Z,5.50
2019-02-12T01:49:58.164Z,4.43
2019-02-12T01:52:25.562Z,4.30
2019-02-12T01:54:52.951Z,4.60
2019-02-12T01:57:20.370Z,4.20
2019-02-12T01:59:47.768Z,4.62
2019-02-12T02:02:15.344Z,5.57
2019-02-12T02:04:42.765Z,5.37
2019-02-12T02:07:10.152Z,5.30
2019-02-12T02:09:37.555Z,4.95
2019-02-12T02:12:04.943Z,5.35
2019-02-12T02:14:32.362Z,6.15
2019-02-12T02:16:59.763Z,6.82
2019-02-12T02:19:27.160Z,5.25
2019-02-12T02:21:54.567Z,4.80
2019-02-12T02:24:22.023Z,5.90
2019-02-12T02:26:49.414Z,5.28
2019-02-12T02:29:16.851Z,6.62
2019-02-12T02:31:44.221Z,4.03
2019-02-12T02:34:11.652Z,4.75
2019-02-12T02:36:39.053Z,4.78
2019-02-12T02:39:06.587Z,5.72
2019-02-12T02:41:33.975Z,4.18
2019-02-12T02:44:01.378Z,5.68
2019-02-12T02:46:28.789Z,4.93
2019-02-12T02:48:56.190Z,6.40
2019-02-12T02:51:23.594Z,5.25
2019-02-12T02:53:50.975Z,4.70
2019-02-12T02:56:18.385Z,4.50
2019-02-12T02:58:45.777Z,5.65
2019-02-12T03:01:13.266Z,5.15
2019-02-12T03:03:40.652Z,5.12
2019-02-12T03:06:08.198Z,6.22
2019-02-12T03:08:35.695Z,7.03
2019-02-12T03:11:03.504Z,5.65
2019-02-12T03:13:30.898Z,5.93
2019-02-12T03:15:58.430Z,5.50
2019-02-12T03:18:25.814Z,5.12
2019-02-12T03:20:53.226Z,4.87
2019-02-12T03:23:20.606Z,5.18
2019-02-12T03:25:47.999Z,5.30
2019-02-12T03:28:15.409Z,6.00
2019-02-12T03:30:42.807Z,5.95
2019-02-12T03:33:10.229Z,7.00
2019-02-12T03:35:37.629Z,5.85
2019-02-12T03:38:05.042Z,5.80
2019-02-12T03:40:32.435Z,4.75
2019-02-12T03:42:59.833Z,4.90
2019-02-12T03:45:27.223Z,6.72
2019-02-12T03:47:54.627Z,6.07
2019-02-12T03:50:22.572Z,5.68
2019-02-12T03:52:49.974Z,9.35
2019-02-12T03:55:17.355Z,5.28
2019-02-12T03:57:44.748Z,5.70
2019-02-12T04:00:13.101Z,7.50
2019-02-12T04:02:40.498Z,5.03
2019-02-12T04:05:07.891Z,5.00
2019-02-12T04:07:35.331Z,5.25
2019-02-12T04:10:02.718Z,6.00
2019-02-12T04:12:30.140Z,5.65
2019-02-12T04:14:58.205Z,5.15
2019-02-12T04:17:25.592Z,5.22
2019-02-12T04:19:53.118Z,7.12
2019-02-12T04:22:22.445Z,7.03
2019-02-12T04:24:48.235Z,4.80
2019-02-12T04:27:15.627Z,8.18
2019-02-12T04:29:43.032Z,5.37
2019-02-12T04:32:10.433Z,7.12
2019-02-12T04:34:37.871Z,5.20
2019-02-12T04:37:05.545Z,7.82
2019-02-12T04:39:33.038Z,4.55
2019-02-12T04:42:00.488Z,5.53
2019-02-12T04:44:27.908Z,5.03
2019-02-12T04:46:55.291Z,6.93
2019-02-12T04:49:22.688Z,4.95
2019-02-12T04:51:50.275Z,5.35
2019-02-12T04:54:17.871Z,5.50
2019-02-12T04:56:46.514Z,6.30
2019-02-12T04:59:13.923Z,5.10
2019-02-12T05:01:41.335Z,5.07
2019-02-12T05:04:08.756Z,4.90
2019-02-12T05:06:36.146Z,7.57
2019-02-12T05:09:11.876Z,5.30
2019-02-12T05:11:39.348Z,6.30
2019-02-12T05:14:06.753Z,5.40
2019-02-12T05:16:34.152Z,5.55
2019-02-12T05:19:01.583Z,5.45
2019-02-12T05:21:28.999Z,6.15
2019-02-12T05:23:56.450Z,5.18
2019-02-12T05:26:24.666Z,5.80
2019-02-12T05:28:52.066Z,4.95
2019-02-12T05:31:19.638Z,8.07
2019-02-12T05:33:47.018Z,6.45
2019-02-12T05:36:14.421Z,5.62
2019-02-12T05:38:41.802Z,6.57
2019-02-12T05:41:11.219Z,6.85
2019-02-12T05:43:36.740Z,5.70
2019-02-12T05:46:04.273Z,6.78
2019-02-12T05:48:31.825Z,7.18
2019-02-12T05:50:59.231Z,6.70
2019-02-12T05:53:26.762Z,5.57
2019-02-12T05:55:54.135Z,4.57
2019-02-12T05:58:21.539Z,5.12
2019-02-12T06:00:48.937Z,5.37
2019-02-12T06:03:16.335Z,4.87
2019-02-12T06:05:43.763Z,5.28
2019-02-12T06:08:11.286Z,5.60
2019-02-12T06:10:39.505Z,6.62
2019-02-12T06:13:06.915Z,6.80
2019-02-12T06:15:34.616Z,4.75
2019-02-12T06:18:02.129Z,19.35
2019-02-12T06:20:29.555Z,18.83
2019-02-12T06:23:03.311Z,5.57
2019-02-12T06:25:24.411Z,4.55
2019-02-12T06:27:51.860Z,6.20
2019-02-12T06:30:21.403Z,4.72
2019-02-12T06:32:48.972Z,5.97
2019-02-12T06:35:16.415Z,4.70
2019-02-12T06:37:43.898Z,4.80
2019-02-12T06:40:11.316Z,5.40
2019-02-12T06:42:38.737Z,4.68
2019-02-12T06:45:11.111Z,4.32
2019-02-12T06:47:38.506Z,4.60
2019-02-12T06:50:08.648Z,4.40
2019-02-12T06:52:36.040Z,4.20
2019-02-12T06:55:04.233Z,5.10
2019-02-12T06:57:31.621Z,4.20
2019-02-12T06:59:59.010Z,5.35
2019-02-12T07:02:38.601Z,3.95
2019-02-12T07:05:05.991Z,4.80
2019-02-12T07:07:35.119Z,4.28
2019-02-12T07:10:02.594Z,5.12
2019-02-12T07:12:36.608Z,4.37
2019-02-12T07:15:14.404Z,3.75
2019-02-12T07:17:46.220Z,4.03
2019-02-12T07:23:26.144Z,8.60
2019-02-12T07:26:10.238Z,5.93
2019-02-12T07:28:52.487Z,4.78
2019-02-12T07:34:56.872Z,12.15
2019-02-12T07:37:26.894Z,5.97
2019-02-12T07:39:56.687Z,5.15
2019-02-12T07:42:27.493Z,4.50
2019-02-12T07:48:13.540Z,10.20
2019-02-12T07:53:54.706Z,10.95
2019-02-12T07:59:21.775Z,11.82
2019-02-12T08:05:11.567Z,10.70
2019-02-12T08:07:54.798Z,6.90
2019-02-12T08:26:31.718Z,10.87
2019-02-12T08:32:22.718Z,11.47
2019-02-12T08:35:04.604Z,6.80
2019-02-12T08:40:28.906Z,10.73
2019-02-12T08:42:59.161Z,6.65
2019-02-12T08:45:34.105Z,9.63
2019-02-12T08:48:10.186Z,7.35
2019-02-12T08:50:47.513Z,8.52
2019-02-12T08:53:23.407Z,4.68
2019-02-12T08:56:07.540Z,7.82
2019-02-12T08:58:40.520Z,6.53
2019-02-12T09:01:12.732Z,7.12
2019-02-12T09:03:57.959Z,6.03
2019-02-12T09:06:34.125Z,7.07
2019-02-12T09:09:22.262Z,5.32
2019-02-12T09:12:12.339Z,3.83
2019-02-12T09:14:49.365Z,4.22
2019-02-12T09:20:30.745Z,5.93
2019-02-12T09:23:01.878Z,2.30
2019-02-12T09:25:29.326Z,2.83
2019-02-12T09:28:02.216Z,4.65
2019-02-12T09:33:38.553Z,4.97
2019-02-12T12:54:59.861Z,2.45
2019-02-12T12:57:25.419Z,2.30
2019-02-12T12:59:53.182Z,1.63
2019-02-12T13:02:20.699Z,2.47
2019-02-12T13:04:52.551Z,2.42
2019-02-12T13:07:21.182Z,1.50
2019-02-12T13:09:48.573Z,2.28
2019-02-12T13:12:16.064Z,2.15
2019-02-12T13:14:43.458Z,1.75
2019-02-12T13:17:11.566Z,1.53
2019-02-12T13:19:38.386Z,1.40
2019-02-12T13:22:05.928Z,2.20
2019-02-12T13:24:33.358Z,4.30
2019-02-12T13:27:01.077Z,1.25
2019-02-12T13:29:28.500Z,1.10
2019-02-12T13:31:55.914Z,2.20
2019-02-12T13:34:23.499Z,3.62
2019-02-12T13:36:50.903Z,2.08
2019-02-12T13:39:18.322Z,3.00
2019-02-12T13:41:45.770Z,3.10
2019-02-12T13:46:40.223Z,2.15
2019-02-12T13:49:08.415Z,3.72
2019-02-12T13:51:35.883Z,2.53
2019-02-12T13:54:04.814Z,2.42
2019-02-12T13:56:31.005Z,2.67
2019-02-12T13:58:58.444Z,2.25
2019-02-12T14:01:25.988Z,2.78
2019-02-12T14:03:53.439Z,2.70
2019-02-12T14:06:20.963Z,4.93
2019-02-12T14:11:15.309Z,3.45
2019-02-12T14:13:42.764Z,7.10
2019-02-12T14:23:31.101Z,4.70
2019-02-12T14:25:58.559Z,6.37
2019-02-12T14:28:26.008Z,4.72
2019-02-12T14:30:54.182Z,5.15
2019-02-12T14:45:36.578Z,4.65
2019-02-12T14:48:04.207Z,3.45
2019-02-12T14:50:31.612Z,4.15
2019-02-12T14:52:59.634Z,3.70
2019-02-12T14:55:33.640Z,3.17
2019-02-12T14:57:54.604Z,3.65
2019-02-12T15:00:22.033Z,3.45
2019-02-12T15:02:49.472Z,3.22
2019-02-12T15:05:16.874Z,4.85
2019-02-12T15:07:44.291Z,3.60
2019-02-12T15:10:11.695Z,5.25
2019-02-12T15:12:39.654Z,5.57
2019-02-12T15:15:09.146Z,5.57
2019-02-12T15:17:37.381Z,5.40
2019-02-12T15:20:08.455Z,4.97
2019-02-12T15:22:35.929Z,5.00
2019-02-12T15:25:03.355Z,5.82
2019-02-12T15:27:30.778Z,5.05
2019-02-12T15:29:58.190Z,5.70
2019-02-12T15:32:25.600Z,6.00
2019-02-12T15:34:53.005Z,5.65
2019-02-12T15:37:20.467Z,5.22
2019-02-12T15:39:47.872Z,6.00
2019-02-12T15:42:15.282Z,6.80
2019-02-12T15:44:42.844Z,4.87
2019-02-12T15:47:10.256Z,7.95
2019-02-12T15:49:37.796Z,5.80
2019-02-12T15:52:05.179Z,5.80
2019-02-12T15:54:32.581Z,6.18
2019-02-12T15:57:00.007Z,5.27
2019-02-12T15:59:27.395Z,5.12
2019-02-12T16:01:54.797Z,4.55
2019-02-12T16:04:25.767Z,5.10
2019-02-12T16:06:49.891Z,3.33
2019-02-12T16:09:17.814Z,4.62
2019-02-12T16:11:44.933Z,3.70
2019-02-12T16:14:12.370Z,3.70
2019-02-12T16:16:39.975Z,2.42
2019-02-12T16:19:07.806Z,3.45
2019-02-12T16:21:34.993Z,4.28
2019-02-12T16:24:02.497Z,2.80
2019-02-12T16:26:29.934Z,2.62
2019-02-12T16:28:57.571Z,2.70
2019-02-12T16:31:24.962Z,3.15
2019-02-12T16:33:52.483Z,1.77
2019-02-12T16:36:20.587Z,3.58
2019-02-12T16:38:48.957Z,2.30
2019-02-12T16:41:15.855Z,1.90
2019-02-12T16:43:43.305Z,2.17
2019-02-12T16:46:13.662Z,2.30
2019-02-12T16:48:41.888Z,3.15
2019-02-12T16:51:09.471Z,2.90
2019-02-12T16:53:37.564Z,3.05
2019-02-12T16:56:08.368Z,4.07
2019-02-12T16:58:32.391Z,2.17
2019-02-12T17:00:59.844Z,2.70
2019-02-12T17:03:27.454Z,1.87
2019-02-12T17:05:54.923Z,2.58
2019-02-12T17:08:22.356Z,2.20
2019-02-12T17:10:49.744Z,2.35
2019-02-12T17:13:17.146Z,2.10
2019-02-12T17:15:44.718Z,3.17
2019-02-12T17:18:12.232Z,3.17
2019-02-12T17:20:39.650Z,2.85
2019-02-12T17:23:07.051Z,2.78
2019-02-12T17:25:34.468Z,1.92
2019-02-12T17:28:01.983Z,2.37
2019-02-12T17:30:29.416Z,2.47
2019-02-12T17:32:56.891Z,1.70
2019-02-12T17:35:24.280Z,2.25
2019-02-12T17:37:51.802Z,1.65
2019-02-12T17:40:19.228Z,2.42
2019-02-12T17:42:46.644Z,1.95
2019-02-12T17:45:14.043Z,2.12
2019-02-12T17:47:41.453Z,2.05
2019-02-12T17:50:09.750Z,2.50
2019-02-12T17:52:37.187Z,2.08
2019-02-12T17:55:04.595Z,1.95
2019-02-12T17:57:33.453Z,2.50
2019-02-12T17:59:59.450Z,2.28
2019-02-12T18:02:26.885Z,2.37
2019-02-12T18:04:54.345Z,2.22
2019-02-12T18:07:21.763Z,2.70
2019-02-12T18:09:49.214Z,3.95
2019-02-12T18:12:16.608Z,3.00
2019-02-12T18:14:44.086Z,2.30
2019-02-12T18:17:11.648Z,2.37
2019-02-12T18:19:39.966Z,2.55
2019-02-12T18:22:07.375Z,2.37
2019-02-12T18:24:34.795Z,2.15
2019-02-12T18:27:02.349Z,1.98
2019-02-12T18:29:30.007Z,3.50
2019-02-12T18:31:57.435Z,2.87
2019-02-12T18:34:24.880Z,3.25
2019-02-12T18:36:52.279Z,2.12
2019-02-12T18:39:19.683Z,3.95
2019-02-12T18:44:20.960Z,2.90
2019-02-12T18:46:49.115Z,3.95
2019-02-12T18:49:16.520Z,3.00
2019-02-12T18:51:43.920Z,3.35
2019-02-12T18:54:12.287Z,2.40
2019-02-12T18:56:41.626Z,3.97
2019-02-12T18:59:07.091Z,3.08
2019-02-12T19:01:34.544Z,4.35
2019-02-12T19:04:02.058Z,3.10
2019-02-12T19:06:29.500Z,4.03
2019-02-12T19:08:57.027Z,4.55
2019-02-12T19:11:24.457Z,3.78
2019-02-12T19:13:51.911Z,2.50
2019-02-12T19:16:19.353Z,3.70
2019-02-12T19:18:46.980Z,2.85
2019-02-12T19:21:14.641Z,3.20
2019-02-12T19:23:42.103Z,3.00
2019-02-12T19:26:09.588Z,2.17
2019-02-12T19:28:36.989Z,3.33
2019-02-12T19:31:04.470Z,2.58
2019-02-12T19:33:31.930Z,4.07
2019-02-12T19:35:59.313Z,2.58
2019-02-12T19:38:26.714Z,3.50
2019-02-12T19:40:54.153Z,3.33
2019-02-12T19:43:21.555Z,3.62
2019-02-12T19:45:48.968Z,4.28
2019-02-12T19:48:16.386Z,4.70
2019-02-12T19:50:43.893Z,4.22
2019-02-12T19:53:11.620Z,3.55
2019-02-12T19:55:39.015Z,2.70
2019-02-12T19:58:06.495Z,2.22
2019-02-12T20:00:33.979Z,3.65
2019-02-12T20:03:01.415Z,3.40
2019-02-12T20:05:28.875Z,3.15
2019-02-12T20:07:56.287Z,3.55
2019-02-12T20:10:23.708Z,2.72
2019-02-12T20:12:51.088Z,3.17
2019-02-12T20:15:19.351Z,3.83
2019-02-12T20:17:46.783Z,3.00
2019-02-12T20:20:14.305Z,2.20
2019-02-12T20:22:41.691Z,4.43
2019-02-12T20:25:09.147Z,3.85
2019-02-12T20:27:36.564Z,3.20
2019-02-12T20:30:03.941Z,2.87
2019-02-12T20:32:31.408Z,2.58
2019-02-12T20:34:58.830Z,2.92
2019-02-12T20:37:26.434Z,2.97
2019-02-12T20:39:53.919Z,4.95
2019-02-12T20:42:21.401Z,2.90
2019-02-12T20:44:48.797Z,3.08
2019-02-12T20:47:16.542Z,3.97
2019-02-12T20:49:43.947Z,4.40
2019-02-12T20:52:11.874Z,3.65
2019-02-12T20:54:39.384Z,4.65
2019-02-12T20:57:14.565Z,3.03
2019-02-12T20:59:35.302Z,2.85
2019-02-12T21:02:02.714Z,2.75
2019-02-12T21:04:30.150Z,4.90
2019-02-12T21:06:57.577Z,3.40
2019-02-12T21:09:25.150Z,3.42
2019-02-12T21:11:52.580Z,3.30
2019-02-12T21:14:20.218Z,2.90
2019-02-12T21:16:47.609Z,2.67
2019-02-12T21:19:15.932Z,2.90
2019-02-12T21:21:44.019Z,3.60
2019-02-12T21:24:11.428Z,3.67
2019-02-12T21:26:38.821Z,2.95
2019-02-12T21:29:06.320Z,2.83
2019-02-12T21:31:33.734Z,3.10
2019-02-12T21:34:01.123Z,3.50
2019-02-12T21:36:28.582Z,3.80
2019-02-12T21:38:56.001Z,2.80
2019-02-12T21:41:23.420Z,3.22
2019-02-12T21:43:50.877Z,3.25
2019-02-12T21:46:18.279Z,3.90
2019-02-12T21:48:45.780Z,2.60
2019-02-12T21:51:13.205Z,2.92
2019-02-12T21:53:40.612Z,3.12
2019-02-12T21:56:08.133Z,2.50
2019-02-12T21:58:35.663Z,4.28
2019-02-12T22:01:03.919Z,3.12
2019-02-12T22:03:31.651Z,2.75
2019-02-12T22:05:59.070Z,3.05
2019-02-12T22:08:26.551Z,3.58
2019-02-12T22:10:54.008Z,4.07
2019-02-12T22:13:21.412Z,3.65
2019-02-12T22:15:48.813Z,2.53
2019-02-12T22:18:17.097Z,3.20
2019-02-12T22:20:44.844Z,2.92
2019-02-12T22:23:12.324Z,3.05
2019-02-12T22:25:39.774Z,2.35
2019-02-12T22:28:07.213Z,2.90
2019-02-12T22:30:34.664Z,2.33
2019-02-12T22:33:02.077Z,2.67
2019-02-12T22:35:29.522Z,2.78
2019-02-12T22:37:57.062Z,3.20
2019-02-12T22:40:24.731Z,2.65
2019-02-12T22:42:52.161Z,2.80
2019-02-12T22:45:22.435Z,2.85
2019-02-12T22:47:49.852Z,2.72
2019-02-12T22:50:17.329Z,2.92
2019-02-12T22:52:44.781Z,3.08
2019-02-12T22:55:12.358Z,3.78
2019-02-12T22:57:39.800Z,2.60
2019-02-12T23:00:25.906Z,3.00
2019-02-12T23:02:53.601Z,2.00
2019-02-12T23:05:22.212Z,2.97
2019-02-12T23:07:48.532Z,2.95
2019-02-12T23:10:16.122Z,2.15
2019-02-12T23:12:43.705Z,2.50
2019-02-12T23:15:11.117Z,2.45
2019-02-12T23:17:38.757Z,2.97
2019-02-12T23:20:06.144Z,2.05
2019-02-12T23:22:33.556Z,2.40
2019-02-12T23:25:00.987Z,2.83
2019-02-12T23:27:28.420Z,2.65
2019-02-12T23:29:55.842Z,2.72
2019-02-12T23:32:23.266Z,2.53
2019-02-12T23:34:56.987Z,2.30
2019-02-12T23:37:18.158Z,2.83
2019-02-12T23:39:45.626Z,2.97
2019-02-12T23:42:13.010Z,3.58
2019-02-12T23:44:40.446Z,2.90
2019-02-12T23:47:07.944Z,3.28
2019-02-12T23:49:35.451Z,3.08
2019-02-12T23:52:02.870Z,3.05
2019-02-12T23:54:30.274Z,3.42
2019-02-12T23:56:57.657Z,2.50
2019-02-12T23:59:25.101Z,2.53
